Time;durP1;ratioP1;P1;durP2;ratioP2;P2;SDS_P1;SDS_P2;PMS_P1;PMS_P2;Temp;Humidity;BMP_temperature;BMP_pressure;BME280_temperature;BME280_humidity;BME280_pressure;Samples;Min_cycle;Max_cycle;Signal;HPM_P1;HPM_P2
2022/01/21 00:00:11;;;;;;;44.70;28.83;;;4.30;88.40;;;;;;4995404;28;20072;-78
2022/01/21 00:02:38;;;;;;;40.77;27.17;;;4.30;88.30;;;;;;4995947;28;20026;-78
2022/01/21 00:05:04;;;;;;;42.83;27.87;;;4.30;88.20;;;;;;4995252;28;20027;-77
2022/01/21 00:07:30;;;;;;;43.07;28.27;;;4.20;87.90;;;;;;4995459;28;20394;-77
2022/01/21 00:09:55;;;;;;;43.63;29.03;;;4.30;87.90;;;;;;4996659;28;20133;-77
2022/01/21 00:12:21;;;;;;;46.13;29.77;;;4.20;87.40;;;;;;4996351;28;20041;-78
2022/01/21 00:14:47;;;;;;;43.27;29.00;;;4.20;87.30;;;;;;4995551;28;20446;-78
2022/01/21 00:17:15;;;;;;;48.53;31.77;;;4.20;87.50;;;;;;4995276;28;20022;-78
2022/01/21 00:19:44;;;;;;;47.60;32.70;;;4.20;87.50;;;;;;4995241;28;20030;-79
2022/01/21 00:30:25;;;;;;;72.00;38.67;;;4.10;87.60;;;;;;4994963;28;20042;-78
2022/01/21 00:32:51;;;;;;;60.60;37.00;;;4.00;87.60;;;;;;4995815;28;20056;-78
2022/01/21 00:35:18;;;;;;;63.37;38.60;;;4.00;87.60;;;;;;4995435;28;20050;-78
2022/01/21 00:37:44;;;;;;;69.10;37.97;;;4.00;87.70;;;;;;4995106;28;20069;-78
2022/01/21 00:40:15;;;;;;;79.00;38.47;;;3.90;87.70;;;;;;4994194;28;20019;-77
2022/01/21 00:45:12;;;;;;;135.53;40.20;;;3.90;87.70;;;;;;4995431;28;20084;-78
2022/01/21 00:47:38;;;;;;;94.40;38.17;;;3.90;87.70;;;;;;4995496;28;20097;-78
2022/01/21 00:50:05;;;;;;;84.53;39.53;;;3.90;87.60;;;;;;4995287;28;20471;-78
2022/01/21 00:52:30;;;;;;;136.23;37.23;;;3.80;88.40;;;;;;4995515;28;20061;-78
2022/01/21 00:54:56;;;;;;;60.37;36.03;;;3.80;88.10;;;;;;4995036;28;20042;-78
2022/01/21 00:57:21;;;;;;;50.80;35.77;;;3.80;88.20;;;;;;4995102;28;20076;-78
2022/01/21 00:59:47;;;;;;;46.67;33.70;;;3.80;88.40;;;;;;4995430;28;20038;-79
2022/01/21 01:02:13;;;;;;;49.63;33.07;;;3.70;88.50;;;;;;4994843;28;20076;-78
2022/01/21 01:04:38;;;;;;;49.83;34.90;;;3.70;88.80;;;;;;4994890;28;20018;-79
2022/01/21 01:07:04;;;;;;;52.33;35.10;;;3.70;89.00;;;;;;4994886;28;20026;-79
2022/01/21 01:09:30;;;;;;;53.80;36.40;;;3.80;89.30;;;;;;4995151;28;20105;-79
2022/01/21 01:20:02;;;;;;;81.53;41.70;;;3.80;90.10;;;;;;4995022;28;20458;-78
2022/01/21 01:22:58;;;;;;;66.90;39.50;;;3.80;90.40;;;;;;4993733;28;20033;-78
2022/01/21 01:28:08;;;;;;;92.20;43.43;;;3.90;90.70;;;;;;4994321;28;20442;-77
2022/01/21 01:30:36;;;;;;;86.47;42.83;;;3.90;90.80;;;;;;4994343;28;20030;-79
2022/01/21 01:33:03;;;;;;;83.37;41.27;;;3.90;90.90;;;;;;4994135;28;20033;-79
2022/01/21 01:35:33;;;;;;;72.73;39.97;;;4.00;91.10;;;;;;4993447;28;20049;-77
2022/01/21 01:50:56;;;;;;;98.07;39.43;;;4.00;91.60;;;;;;4994650;28;20493;-77
2022/01/21 01:53:31;;;;;;;176.97;41.40;;;4.10;91.70;;;;;;4994180;28;20438;-78
2022/01/21 01:55:58;;;;;;;145.23;39.47;;;4.10;91.70;;;;;;4993975;28;20137;-78
2022/01/21 01:58:24;;;;;;;129.20;39.70;;;4.00;91.70;;;;;;4991834;28;20493;-79
2022/01/21 02:00:50;;;;;;;115.30;38.83;;;4.00;91.70;;;;;;4991604;28;20031;-75
2022/01/21 02:03:16;;;;;;;97.77;39.20;;;4.00;91.70;;;;;;4991348;28;20439;-78
2022/01/21 02:05:43;;;;;;;80.20;38.00;;;4.00;91.70;;;;;;4992987;28;20494;-79
2022/01/21 02:08:10;;;;;;;69.17;38.00;;;4.00;91.70;;;;;;4993117;28;20025;-79
2022/01/21 02:10:37;;;;;;;62.53;37.23;;;4.00;91.60;;;;;;4993400;28;20065;-77
2022/01/21 02:13:16;;;;;;;65.47;37.87;;;4.00;91.50;;;;;;4992742;28;20046;-77
2022/01/21 02:15:43;;;;;;;76.00;36.13;;;4.00;91.40;;;;;;4993127;28;20479;-78
2022/01/21 02:23:37;;;;;;;57.77;34.43;;;3.90;90.90;;;;;;4993317;28;20514;-78
2022/01/21 02:26:03;;;;;;;57.87;32.97;;;3.90;90.70;;;;;;4993780;28;20023;-76
2022/01/21 02:28:28;;;;;;;53.60;31.90;;;3.90;90.50;;;;;;4992708;28;20438;-77
2022/01/21 02:30:59;;;;;;;71.43;34.87;;;3.80;90.40;;;;;;4993559;28;20081;-76
2022/01/21 02:33:26;;;;;;;84.50;31.37;;;3.90;90.40;;;;;;4992978;28;20076;-77
2022/01/21 02:35:52;;;;;;;58.70;31.43;;;3.90;90.30;;;;;;4992514;28;20054;-77
2022/01/21 02:38:19;;;;;;;49.37;31.60;;;3.80;90.10;;;;;;4992535;28;20372;-79
2022/01/21 02:40:45;;;;;;;63.20;31.67;;;3.80;89.90;;;;;;4992536;28;20113;-78
2022/01/21 02:43:11;;;;;;;76.07;31.57;;;3.80;89.70;;;;;;4992282;28;20109;-78
2022/01/21 02:45:39;;;;;;;130.90;34.30;;;3.70;89.50;;;;;;4993232;28;20092;-77
2022/01/21 02:48:08;;;;;;;95.80;32.00;;;3.70;89.50;;;;;;4992510;28;20034;-78
2022/01/21 02:50:33;;;;;;;231.10;33.03;;;3.60;89.30;;;;;;4992991;28;20113;-78
2022/01/21 02:53:12;;;;;;;67.30;32.13;;;3.60;88.90;;;;;;4992132;28;20105;-78
2022/01/21 02:55:39;;;;;;;142.37;30.67;;;3.60;89.00;;;;;;4992211;28;20460;-78
2022/01/21 02:58:04;;;;;;;105.40;29.23;;;3.50;89.00;;;;;;4991781;28;20031;-78
2022/01/21 03:00:30;;;;;;;147.80;30.97;;;3.50;89.10;;;;;;4993222;28;20023;-77
2022/01/21 03:02:56;;;;;;;136.73;28.53;;;3.40;89.00;;;;;;4992885;28;20030;-78
2022/01/21 03:05:21;;;;;;;108.43;28.80;;;3.40;89.00;;;;;;4993189;28;20019;-78
2022/01/21 03:07:48;;;;;;;115.27;28.57;;;3.30;88.80;;;;;;4992928;28;20030;-79
2022/01/21 03:10:15;;;;;;;49.97;26.30;;;3.30;88.40;;;;;;4992790;28;20033;-78
2022/01/21 03:12:41;;;;;;;58.13;26.87;;;3.30;88.60;;;;;;4992489;28;20117;-78
2022/01/21 03:15:07;;;;;;;101.57;27.17;;;3.30;88.20;;;;;;4992030;28;20097;-78
2022/01/21 03:17:33;;;;;;;80.33;25.90;;;3.20;88.10;;;;;;4992822;28;20160;-78
2022/01/21 03:19:59;;;;;;;130.60;25.67;;;3.20;87.90;;;;;;4992794;28;20031;-78
2022/01/21 03:22:25;;;;;;;80.30;25.93;;;3.20;87.90;;;;;;4991569;28;20023;-78
2022/01/21 03:24:51;;;;;;;88.93;25.83;;;3.20;87.90;;;;;;4993375;28;20037;-76
2022/01/21 03:27:17;;;;;;;34.20;23.57;;;3.10;87.90;;;;;;4992004;28;20033;-79
2022/01/21 03:29:44;;;;;;;31.97;23.63;;;3.00;87.80;;;;;;4992773;28;20077;-80
2022/01/21 03:32:09;;;;;;;30.60;22.70;;;3.00;87.80;;;;;;4992465;28;20030;-79
2022/01/21 03:34:36;;;;;;;33.73;24.63;;;3.00;87.60;;;;;;4992249;28;20022;-78
2022/01/21 03:37:02;;;;;;;33.37;23.50;;;2.90;87.70;;;;;;4991974;28;20030;-78
2022/01/21 03:39:28;;;;;;;33.93;23.13;;;3.00;87.90;;;;;;4992186;28;20048;-78
2022/01/21 03:41:54;;;;;;;32.47;23.77;;;2.90;87.70;;;;;;4993010;28;20446;-79
2022/01/21 03:44:19;;;;;;;32.27;23.77;;;2.90;87.60;;;;;;4992048;28;20088;-79
2022/01/21 03:46:45;;;;;;;29.77;22.13;;;2.90;87.60;;;;;;4991366;28;20099;-78
2022/01/21 03:49:12;;;;;;;30.13;21.03;;;2.90;88.30;;;;;;4992185;28;20050;-80
2022/01/21 03:51:38;;;;;;;30.17;21.47;;;2.90;87.80;;;;;;4993242;28;20038;-78
2022/01/21 03:54:03;;;;;;;25.27;17.70;;;2.90;87.80;;;;;;4991640;28;20080;-79
2022/01/21 03:56:29;;;;;;;24.80;16.07;;;2.90;88.10;;;;;;4991288;28;20076;-79
2022/01/21 03:58:55;;;;;;;21.37;14.53;;;2.90;88.40;;;;;;4992574;28;20042;-80
2022/01/21 04:01:24;;;;;;;19.40;14.60;;;3.00;88.60;;;;;;4993067;28;20033;-77
2022/01/21 04:03:50;;;;;;;18.43;13.67;;;3.10;88.80;;;;;;4993644;28;20054;-74
2022/01/21 04:06:15;;;;;;;20.33;13.63;;;3.10;88.90;;;;;;4995139;28;20026;-78
2022/01/21 04:08:41;;;;;;;18.17;13.23;;;3.20;88.90;;;;;;4995742;28;20376;-78
2022/01/21 04:11:07;;;;;;;18.80;12.80;;;3.30;88.80;;;;;;4996670;28;20034;-77
2022/01/21 04:13:34;;;;;;;19.80;13.00;;;3.40;88.60;;;;;;4995520;28;20038;-78
2022/01/21 04:16:00;;;;;;;17.53;13.17;;;3.40;88.40;;;;;;4996517;28;20022;-78
2022/01/21 04:18:26;;;;;;;17.90;13.33;;;3.40;88.10;;;;;;4995029;28;20062;-77
2022/01/21 04:20:53;;;;;;;17.87;13.00;;;3.50;87.90;;;;;;4996251;28;20513;-77
2022/01/21 04:23:20;;;;;;;16.47;12.07;;;3.50;87.70;;;;;;4995430;28;20061;-78
2022/01/21 04:25:46;;;;;;;17.70;12.53;;;3.50;87.50;;;;;;4995920;28;20018;-77
2022/01/21 04:28:12;;;;;;;19.13;13.20;;;3.60;87.30;;;;;;4996102;28;20019;-78
2022/01/21 04:30:38;;;;;;;17.63;12.27;;;3.60;87.10;;;;;;4995688;28;20035;-76
2022/01/21 04:33:04;;;;;;;18.20;12.70;;;3.60;86.90;;;;;;4995908;28;20085;-77
2022/01/21 04:35:31;;;;;;;18.23;12.73;;;3.60;86.70;;;;;;4995210;28;20046;-77
2022/01/21 04:38:00;;;;;;;16.60;12.23;;;3.60;86.50;;;;;;4995490;28;20038;-77
2022/01/21 04:40:30;;;;;;;17.23;12.93;;;3.70;86.30;;;;;;4995331;28;20108;-77
2022/01/21 04:48:27;;;;;;;15.00;11.60;;;3.70;86.10;;;;;;4995514;28;20498;-77
2022/01/21 04:50:56;;;;;;;18.00;12.40;;;3.80;85.80;;;;;;4993863;28;20026;-75
2022/01/21 04:53:23;;;;;;;17.33;12.30;;;3.80;85.40;;;;;;4995937;28;20057;-77
2022/01/21 04:55:49;;;;;;;17.40;12.60;;;3.70;85.10;;;;;;4995681;28;20018;-75
2022/01/21 04:58:15;;;;;;;19.23;12.80;;;3.80;84.80;;;;;;4995365;28;20042;-77
2022/01/21 05:00:41;;;;;;;17.53;12.10;;;3.80;84.50;;;;;;4995309;28;20061;-78
2022/01/21 05:03:07;;;;;;;19.03;13.13;;;3.80;83.90;;;;;;4994198;28;20061;-77
2022/01/21 05:05:33;;;;;;;17.83;12.60;;;3.80;83.70;;;;;;4994352;28;20031;-77
2022/01/21 05:08:03;;;;;;;16.43;12.63;;;3.80;83.40;;;;;;4995195;28;20029;-77
2022/01/21 05:10:29;;;;;;;16.80;12.37;;;3.80;83.20;;;;;;4994156;28;20445;-77
2022/01/21 05:12:55;;;;;;;18.60;13.03;;;3.80;83.00;;;;;;4995265;28;20065;-76
2022/01/21 05:15:28;;;;;;;14.47;11.50;;;3.90;82.90;;;;;;4994018;28;20026;-77
2022/01/21 05:17:54;;;;;;;17.43;12.90;;;3.80;82.70;;;;;;4994875;28;20022;-77
2022/01/21 05:20:20;;;;;;;15.40;11.07;;;3.90;82.70;;;;;;4994574;28;20026;-77
2022/01/21 05:22:46;;;;;;;16.73;11.77;;;3.90;82.60;;;;;;4994483;28;20022;-76
2022/01/21 05:25:17;;;;;;;16.70;12.40;;;3.90;82.20;;;;;;4994897;28;20026;-77
2022/01/21 05:27:54;;;;;;;18.43;12.07;;;3.90;82.00;;;;;;5010030;28;20475;-76
2022/01/21 05:30:20;;;;;;;17.20;12.30;;;3.90;81.70;;;;;;4994823;28;20026;-77
2022/01/21 05:32:46;;;;;;;16.60;11.53;;;3.90;81.60;;;;;;4994029;28;20076;-77
2022/01/21 05:35:13;;;;;;;16.30;12.00;;;3.90;81.50;;;;;;4993263;28;20053;-78
2022/01/21 05:37:39;;;;;;;17.00;10.20;;;3.90;81.10;;;;;;4993538;28;20048;-76
2022/01/21 05:40:08;;;;;;;16.17;11.63;;;3.90;81.10;;;;;;4993118;28;20725;-77
2022/01/21 05:42:35;;;;;;;14.63;11.57;;;3.90;80.80;;;;;;4994247;28;20212;-77
2022/01/21 05:47:28;;;;;;;17.30;11.70;;;3.90;80.60;;;;;;4994543;28;20034;-77
2022/01/21 05:49:54;;;;;;;16.40;11.20;;;3.90;80.40;;;;;;4995159;28;20033;-77
2022/01/21 05:52:21;;;;;;;15.57;11.30;;;3.90;80.30;;;;;;4993489;28;20022;-76
2022/01/21 05:54:47;;;;;;;14.83;11.13;;;3.80;80.60;;;;;;4994650;28;20463;-76
2022/01/21 05:57:16;;;;;;;18.87;11.53;;;3.80;80.80;;;;;;4994115;28;20461;-77
2022/01/21 05:59:42;;;;;;;17.00;11.63;;;3.80;81.00;;;;;;5008882;28;20082;-78
2022/01/21 06:02:11;;;;;;;18.57;11.50;;;3.80;81.10;;;;;;4993677;28;20030;-77
2022/01/21 06:04:39;;;;;;;12.40;9.33;;;3.90;80.80;;;;;;4993373;28;20041;-78
2022/01/21 06:07:07;;;;;;;12.03;8.47;;;3.90;80.10;;;;;;4993010;28;20129;-77
2022/01/21 06:09:33;;;;;;;15.30;9.33;;;3.90;79.30;;;;;;4994136;28;20383;-77
2022/01/21 06:11:59;;;;;;;12.50;9.07;;;4.00;78.60;;;;;;4993927;28;20027;-77
2022/01/21 06:14:25;;;;;;;14.30;9.60;;;4.00;78.40;;;;;;4994492;28;20038;-77
2022/01/21 06:16:52;;;;;;;16.03;8.70;;;4.00;78.00;;;;;;4993825;28;20019;-77
2022/01/21 06:19:18;;;;;;;15.00;10.23;;;4.00;77.50;;;;;;4994103;28;20040;-77
2022/01/21 06:21:43;;;;;;;13.30;9.50;;;4.00;77.00;;;;;;4993629;28;20024;-77
2022/01/21 06:24:09;;;;;;;15.47;10.47;;;4.00;76.70;;;;;;4992719;28;20034;-77
2022/01/21 06:26:36;;;;;;;13.73;9.80;;;4.00;76.50;;;;;;4993010;28;20391;-77
2022/01/21 06:29:02;;;;;;;15.30;9.97;;;3.90;76.60;;;;;;4993051;28;20022;-78
2022/01/21 06:31:28;;;;;;;17.43;10.90;;;3.90;76.50;;;;;;4993571;28;20113;-77
2022/01/21 06:33:54;;;;;;;15.80;10.90;;;3.90;76.50;;;;;;4994017;28;20058;-77
2022/01/21 06:36:20;;;;;;;15.13;10.73;;;3.90;76.60;;;;;;4993509;28;20446;-77
2022/01/21 06:38:46;;;;;;;19.83;11.07;;;3.90;76.60;;;;;;4992963;28;20030;-78
2022/01/21 06:41:12;;;;;;;16.07;11.27;;;3.90;76.60;;;;;;4994091;28;20030;-78
2022/01/21 06:43:38;;;;;;;16.83;11.03;;;3.80;76.70;;;;;;4993535;28;20026;-77
2022/01/21 06:46:03;;;;;;;14.43;11.13;;;3.80;76.60;;;;;;4993601;28;20113;-77
2022/01/21 06:48:29;;;;;;;17.33;11.63;;;3.80;76.60;;;;;;4993764;28;20535;-77
2022/01/21 06:50:55;;;;;;;15.93;11.10;;;3.80;76.50;;;;;;4993548;28;20026;-78
2022/01/21 06:53:21;;;;;;;15.30;10.83;;;3.80;76.20;;;;;;4993426;28;20023;-77
2022/01/21 06:55:47;;;;;;;16.00;11.47;;;3.80;76.20;;;;;;4993469;28;20369;-77
2022/01/21 06:58:13;;;;;;;14.93;11.03;;;3.80;76.30;;;;;;4993610;28;20037;-77
2022/01/21 07:00:39;;;;;;;13.87;9.93;;;3.80;76.40;;;;;;4993699;28;20367;-77
2022/01/21 07:03:04;;;;;;;15.90;11.40;;;3.80;76.60;;;;;;4993561;28;20019;-78
2022/01/21 07:05:30;;;;;;;15.20;10.43;;;3.80;76.70;;;;;;4992187;28;20026;-77
2022/01/21 07:07:58;;;;;;;14.93;10.67;;;3.80;76.60;;;;;;4993164;28;20022;-77
2022/01/21 07:10:24;;;;;;;16.67;10.53;;;3.80;76.70;;;;;;4993510;28;20030;-77
2022/01/21 07:12:50;;;;;;;17.37;11.37;;;3.70;76.50;;;;;;4993541;28;20041;-78
2022/01/21 07:15:19;;;;;;;18.17;11.30;;;3.80;76.50;;;;;;4993372;28;20463;-77
2022/01/21 07:17:45;;;;;;;14.40;9.87;;;3.80;76.60;;;;;;4993502;28;20018;-78
2022/01/21 07:20:12;;;;;;;14.60;9.73;;;3.80;76.60;;;;;;4993433;28;20506;-76
2022/01/21 07:22:38;;;;;;;15.10;9.53;;;3.80;76.60;;;;;;4993115;28;20034;-77
2022/01/21 07:25:05;;;;;;;13.80;9.30;;;3.80;76.20;;;;;;4993117;28;20197;-74
2022/01/21 07:27:31;;;;;;;11.90;8.27;;;3.80;76.10;;;;;;4993337;28;20387;-76
2022/01/21 07:29:56;;;;;;;14.43;9.63;;;3.80;75.80;;;;;;4993541;28;20023;-79
2022/01/21 07:32:22;;;;;;;15.77;9.33;;;3.90;75.80;;;;;;4993237;28;20023;-78
2022/01/21 07:34:48;;;;;;;13.43;9.63;;;3.90;75.70;;;;;;4993064;28;20022;-78
2022/01/21 07:37:15;;;;;;;13.43;10.00;;;4.00;75.60;;;;;;4992682;28;20058;-78
2022/01/21 07:39:41;;;;;;;17.47;10.73;;;4.00;75.60;;;;;;4996093;28;20046;-79
2022/01/21 07:42:06;;;;;;;21.23;11.00;;;4.00;75.50;;;;;;4996535;28;20022;-78
2022/01/21 07:44:32;;;;;;;12.83;9.67;;;4.10;75.40;;;;;;4996486;28;20058;-81
2022/01/21 07:46:59;;;;;;;14.13;9.03;;;4.20;75.20;;;;;;4996862;28;20037;-79
2022/01/21 07:49:25;;;;;;;15.53;9.67;;;4.20;74.40;;;;;;4994989;28;20194;-79
2022/01/21 07:51:51;;;;;;;13.93;9.70;;;4.30;73.70;;;;;;4994178;28;20620;-78
2022/01/21 07:54:16;;;;;;;19.23;10.27;;;4.30;73.80;;;;;;4995291;28;20046;-79
2022/01/21 07:56:42;;;;;;;15.80;10.53;;;4.30;74.00;;;;;;4996230;28;20025;-78
2022/01/21 07:59:11;;;;;;;14.30;9.40;;;4.40;73.90;;;;;;5011388;28;20513;-79
2022/01/21 08:01:36;;;;;;;14.40;9.87;;;4.40;73.60;;;;;;5015157;28;20371;-78
2022/01/21 08:04:02;;;;;;;12.70;9.03;;;4.40;73.60;;;;;;5014294;28;20037;-76
2022/01/21 08:06:29;;;;;;;13.93;9.23;;;4.50;73.80;;;;;;5014097;28;20494;-78
2022/01/21 08:08:54;;;;;;;13.37;9.20;;;4.50;73.70;;;;;;4996149;28;20022;-78
2022/01/21 08:11:21;;;;;;;13.93;8.90;;;4.60;74.00;;;;;;4992635;28;20035;-78
2022/01/21 08:13:46;;;;;;;13.67;8.67;;;4.60;73.10;;;;;;4994479;28;20069;-80
2022/01/21 08:16:12;;;;;;;13.33;8.53;;;4.60;73.00;;;;;;4994784;28;20022;-79
2022/01/21 08:18:38;;;;;;;13.23;8.40;;;4.80;71.50;;;;;;4987228;28;20042;-77
2022/01/21 08:21:04;;;;;;;13.37;8.83;;;4.80;70.50;;;;;;4984413;28;20022;-79
2022/01/21 08:23:29;;;;;;;14.17;8.67;;;4.90;70.60;;;;;;4980110;28;20502;-80
2022/01/21 08:25:55;;;;;;;16.73;9.23;;;4.90;70.80;;;;;;4975063;28;20019;-77
2022/01/21 08:28:21;;;;;;;14.13;9.00;;;4.90;70.80;;;;;;4975566;28;20499;-79
2022/01/21 08:30:47;;;;;;;15.43;8.87;;;5.00;70.80;;;;;;4976831;28;20027;-75
2022/01/21 08:33:12;;;;;;;17.00;8.77;;;5.00;70.20;;;;;;4976480;28;20054;-79
2022/01/21 08:35:38;;;;;;;12.50;7.80;;;5.10;70.20;;;;;;4976119;28;20050;-77
2022/01/21 08:38:05;;;;;;;14.37;9.50;;;5.10;70.20;;;;;;4976330;28;20081;-79
2022/01/21 08:40:31;;;;;;;15.90;8.40;;;5.20;70.30;;;;;;4976595;28;20365;-78
2022/01/21 08:42:57;;;;;;;16.83;8.77;;;5.20;70.30;;;;;;4975704;28;20077;-76
2022/01/21 08:45:23;;;;;;;23.20;10.77;;;5.20;70.40;;;;;;4974861;28;20118;-77
2022/01/21 08:47:50;;;;;;;15.30;8.37;;;5.30;70.40;;;;;;4975674;28;20105;-79
2022/01/21 08:50:18;;;;;;;15.03;8.07;;;5.30;70.20;;;;;;4973931;28;20030;-77
2022/01/21 08:52:45;;;;;;;21.73;9.63;;;5.40;69.80;;;;;;4975442;28;20029;-78
2022/01/21 08:55:19;;;;;;;12.70;6.43;;;5.40;69.70;;;;;;4975015;28;20054;-78
2022/01/21 08:57:47;;;;;;;8.53;5.87;;;5.40;69.40;;;;;;4974449;28;20022;-76
2022/01/21 09:00:20;;;;;;;10.80;5.50;;;5.50;68.10;;;;;;4974385;28;20038;-78
2022/01/21 09:02:47;;;;;;;13.37;6.40;;;5.50;67.60;;;;;;4975227;28;20030;-78
2022/01/21 09:05:13;;;;;;;8.23;4.87;;;5.60;66.80;;;;;;4974819;28;20031;-75
2022/01/21 09:07:39;;;;;;;9.60;5.60;;;5.70;66.40;;;;;;4974309;28;20019;-78
2022/01/21 09:10:06;;;;;;;10.70;6.13;;;5.70;66.30;;;;;;4974813;28;20037;-78
2022/01/21 09:12:33;;;;;;;9.53;5.43;;;5.70;65.70;;;;;;4975517;28;20377;-79
2022/01/21 09:14:58;;;;;;;9.73;6.03;;;5.80;65.70;;;;;;4974438;28;20037;-78
2022/01/21 09:17:24;;;;;;;9.50;5.20;;;5.80;65.80;;;;;;4974253;28;20106;-78
2022/01/21 09:19:50;;;;;;;7.07;4.93;;;5.80;65.50;;;;;;4973863;28;20043;-78
2022/01/21 09:22:15;;;;;;;10.53;5.07;;;5.90;65.10;;;;;;4975091;28;20407;-80
2022/01/21 09:24:41;;;;;;;7.83;3.30;;;5.90;64.60;;;;;;4975432;28;20119;-77
2022/01/21 09:27:07;;;;;;;8.87;3.50;;;6.00;63.10;;;;;;4975468;28;20220;-78
2022/01/21 09:29:34;;;;;;;5.90;2.00;;;6.10;61.80;;;;;;4975120;28;20117;-79
2022/01/21 09:32:00;;;;;;;2.83;1.47;;;6.10;59.60;;;;;;4974345;28;20031;-77
2022/01/21 09:34:27;;;;;;;6.17;1.90;;;6.20;55.80;;;;;;4975507;28;20490;-78
2022/01/21 09:36:55;;;;;;;9.70;2.03;;;6.20;53.20;;;;;;4975106;28;20101;-78
2022/01/21 09:39:21;;;;;;;6.80;1.77;;;6.30;51.00;;;;;;4975429;28;20039;-78
2022/01/21 09:41:48;;;;;;;5.17;1.73;;;6.40;49.00;;;;;;4975542;28;20145;-76
2022/01/21 09:44:17;;;;;;;2.07;1.23;;;6.40;49.70;;;;;;4975236;28;20026;-81
2022/01/21 09:46:46;;;;;;;6.23;1.40;;;6.40;47.60;;;;;;4975372;28;20030;-79
2022/01/21 09:49:27;;;;;;;5.77;1.37;;;6.50;46.40;;;;;;4974016;28;20130;-78
2022/01/21 09:52:03;;;;;;;2.40;1.30;;;6.60;47.10;;;;;;4975144;28;20077;-80
2022/01/21 09:54:32;;;;;;;8.70;1.30;;;6.60;46.60;;;;;;4973942;28;20038;-80
2022/01/21 09:56:59;;;;;;;3.40;1.23;;;6.60;46.50;;;;;;4974692;28;20030;-79
2022/01/21 09:59:28;;;;;;;1.67;1.13;;;6.70;45.60;;;;;;4971074;28;20477;-79
2022/01/21 10:01:56;;;;;;;3.30;1.60;;;6.70;45.40;;;;;;4971525;28;20026;-79
2022/01/21 10:04:27;;;;;;;4.87;1.53;;;6.80;44.20;;;;;;4973318;28;20055;-78
2022/01/21 10:06:55;;;;;;;6.33;2.03;;;6.80;44.20;;;;;;4974756;28;20110;-79
2022/01/21 10:09:22;;;;;;;16.33;8.37;;;6.90;44.10;;;;;;4974923;28;20031;-79
2022/01/21 10:11:51;;;;;;;4.43;1.93;;;6.90;44.00;;;;;;4975044;28;20038;-79
2022/01/21 10:14:21;;;;;;;2.53;1.77;;;7.00;43.80;;;;;;4975011;28;20072;-79
2022/01/21 10:16:48;;;;;;;3.50;1.97;;;7.10;44.60;;;;;;4974884;28;20038;-79
2022/01/21 10:19:34;;;;;;;2.30;1.40;;;7.10;44.00;;;;;;4975067;28;20033;-79
2022/01/21 10:22:09;;;;;;;2.63;1.30;;;7.20;43.20;;;;;;4974999;28;20031;-79
2022/01/21 10:24:48;;;;;;;4.47;1.40;;;7.20;41.30;;;;;;4971402;28;20396;-78
2022/01/21 10:27:22;;;;;;;3.50;1.77;;;7.30;41.20;;;;;;4972290;28;20050;-78
2022/01/21 10:29:48;;;;;;;5.50;1.73;;;7.30;42.10;;;;;;4972699;28;20520;-79
2022/01/21 10:32:14;;;;;;;2.90;1.70;;;7.40;41.90;;;;;;4973792;28;20058;-79
2022/01/21 10:34:43;;;;;;;2.80;1.50;;;7.40;42.40;;;;;;4974434;28;20034;-78
2022/01/21 10:37:27;;;;;;;2.20;1.27;;;7.50;42.00;;;;;;4974041;28;20492;-77
2022/01/21 10:40:04;;;;;;;3.17;2.00;;;7.60;42.30;;;;;;4973929;28;20126;-77
2022/01/21 10:42:30;;;;;;;3.97;2.03;;;7.60;42.00;;;;;;4974492;28;20110;-79
2022/01/21 10:44:58;;;;;;;3.37;1.73;;;7.70;42.80;;;;;;4974363;28;20065;-78
2022/01/21 10:47:30;;;;;;;4.57;1.33;;;7.70;42.90;;;;;;4972294;28;20094;-79
2022/01/21 10:50:02;;;;;;;2.43;1.40;;;7.80;41.90;;;;;;4974049;28;20077;-77
2022/01/21 10:52:54;;;;;;;;;;;7.90;42.00;;;;;;4998239;28;20064;-78
2022/01/21 10:55:32;;;;;;;4.60;1.47;;;7.90;41.40;;;;;;5009765;28;19906;-74
2022/01/21 10:58:15;;;;;;;3.83;1.70;;;8.00;40.80;;;;;;5012737;28;20045;-78
2022/01/21 11:00:58;;;;;;;2.63;1.37;;;8.00;40.70;;;;;;4996354;28;20054;-74
2022/01/21 11:03:24;;;;;;;2.45;1.40;;;8.10;40.00;;;;;;5002606;28;20030;-79
2022/01/21 11:05:54;;;;;;;2.30;1.10;;;8.10;40.30;;;;;;5012695;28;20076;-78
2022/01/21 11:08:26;;;;;;;2.40;1.13;;;8.20;39.80;;;;;;5012441;28;20022;-78
2022/01/21 11:10:52;;;;;;;2.67;1.17;;;8.20;39.50;;;;;;5010379;28;20058;-77
2022/01/21 11:13:20;;;;;;;2.37;1.57;;;8.30;39.90;;;;;;5014485;28;20105;-77
2022/01/21 11:15:58;;;;;;;4.37;1.47;;;8.40;40.60;;;;;;5016285;28;20094;-78
2022/01/21 11:18:29;;;;;;;4.10;1.70;;;8.50;41.10;;;;;;5016679;28;20662;-77
2022/01/21 11:21:08;;;;;;;2.10;1.53;;;8.50;40.50;;;;;;5016671;28;20030;-79
2022/01/21 11:23:36;;;;;;;3.33;1.40;;;8.60;39.50;;;;;;5016531;28;20022;-77
2022/01/21 11:26:08;;;;;;;4.83;1.53;;;8.60;38.50;;;;;;5016019;28;20026;-79
2022/01/21 11:28:41;;;;;;;5.57;1.47;;;8.60;38.00;;;;;;5016296;28;20053;-76
2022/01/21 11:31:08;;;;;;;2.93;1.43;;;8.70;39.00;;;;;;5015855;28;20026;-77
2022/01/21 11:33:35;;;;;;;3.27;1.80;;;8.80;38.80;;;;;;5016189;28;20030;-78
2022/01/21 11:36:03;;;;;;;4.93;2.30;;;8.80;38.60;;;;;;5016176;28;20498;-75
2022/01/21 11:38:30;;;;;;;3.83;2.40;;;8.90;39.30;;;;;;5015960;28;20481;-78
2022/01/21 11:40:56;;;;;;;4.33;2.40;;;8.90;41.10;;;;;;5016355;28;20061;-77
2022/01/21 11:43:22;;;;;;;3.87;2.80;;;8.90;40.80;;;;;;5016251;28;20071;-77
2022/01/21 11:48:52;;;;;;;4.17;2.40;;;9.00;42.20;;;;;;4996756;28;20113;-74
2022/01/21 11:51:33;;;;;;;4.97;2.40;;;9.00;41.80;;;;;;5015635;28;20536;-75
2022/01/21 11:54:04;;;;;;;5.63;3.43;;;9.10;41.00;;;;;;5015666;28;20138;-77
2022/01/21 11:56:49;;;;;;;5.40;3.53;;;9.10;41.50;;;;;;5016095;28;20018;-78
2022/01/21 11:59:35;;;;;;;7.03;3.37;;;9.10;42.70;;;;;;5015586;28;20040;-78
2022/01/21 12:02:22;;;;;;;11.70;3.77;;;9.10;43.20;;;;;;5015119;28;20029;-77
2022/01/21 12:04:53;;;;;;;6.67;3.40;;;9.10;42.50;;;;;;5012161;28;20499;-78
2022/01/21 12:07:44;;;;;;;4.77;3.33;;;9.10;42.20;;;;;;5016202;28;20060;-78
2022/01/21 12:10:22;;;;;;;6.50;3.37;;;9.10;42.10;;;;;;5016253;28;20451;-79
2022/01/21 12:12:54;;;;;;;5.93;3.30;;;9.00;41.10;;;;;;5015895;28;20084;-77
2022/01/21 12:21:03;;;;;;;5.00;2.70;;;9.00;42.80;;;;;;5016000;28;20597;-77
2022/01/21 12:23:29;;;;;;;9.00;2.97;;;9.10;42.40;;;;;;5013581;28;20049;-77
2022/01/21 12:26:16;;;;;;;8.60;1.90;;;9.10;40.10;;;;;;5028410;28;20062;-79
2022/01/21 12:29:04;;;;;;;4.77;1.50;;;9.20;39.20;;;;;;5012922;28;20026;-78
2022/01/21 12:31:40;;;;;;;5.30;2.90;;;9.20;37.90;;;;;;5010981;28;20030;-79
2022/01/21 12:34:15;;;;;;;3.40;2.20;;;9.20;39.10;;;;;;5016064;28;20021;-78
2022/01/21 12:36:54;;;;;;;3.93;1.70;;;9.30;40.10;;;;;;5015264;28;20046;-76
2022/01/21 12:39:43;;;;;;;4.53;1.90;;;9.30;38.10;;;;;;5015123;28;20034;-79
2022/01/21 12:42:21;;;;;;;3.63;1.30;;;9.30;37.30;;;;;;5015338;28;20026;-79
2022/01/21 12:44:57;;;;;;;2.80;1.60;;;9.40;37.10;;;;;;5015523;28;20026;-78
2022/01/21 12:47:43;;;;;;;5.37;1.87;;;9.40;36.90;;;;;;5013515;28;20381;-79
2022/01/21 12:50:34;;;;;;;9.03;2.50;;;9.40;36.70;;;;;;5014661;28;20026;-77
2022/01/21 12:58:22;;;;;;;4.53;1.75;;;9.40;37.40;;;;;;5014983;28;20049;-77
2022/01/21 13:00:54;;;;;;;4.00;1.60;;;9.40;37.20;;;;;;5014759;28;20075;-75
2022/01/21 13:03:35;;;;;;;2.17;1.47;;;9.50;37.10;;;;;;5014894;28;20030;-80
2022/01/21 13:06:19;;;;;;;3.20;2.10;;;9.40;36.80;;;;;;5014817;28;20030;-79
2022/01/21 13:08:47;;;;;;;6.57;2.00;;;9.40;37.00;;;;;;5014782;28;20049;-80
2022/01/21 13:11:23;;;;;;;9.53;2.10;;;9.40;37.00;;;;;;5014585;28;20014;-77
2022/01/21 13:14:00;;;;;;;7.60;2.40;;;9.40;36.80;;;;;;5014956;28;20022;-77
2022/01/21 13:16:31;;;;;;;4.60;2.30;;;9.40;37.10;;;;;;5014907;28;20022;-77
2022/01/21 13:19:05;;;;;;;5.60;2.50;;;9.40;36.90;;;;;;5014654;28;20088;-77
2022/01/21 13:21:33;;;;;;;4.37;2.00;;;9.40;37.20;;;;;;5013037;28;20026;-79
2022/01/21 13:24:02;;;;;;;5.13;1.80;;;9.40;36.90;;;;;;5014712;28;20022;-79
2022/01/21 13:26:37;;;;;;;8.03;3.07;;;9.40;37.20;;;;;;5014017;28;20554;-79
2022/01/21 13:29:10;;;;;;;5.83;2.73;;;9.40;36.90;;;;;;5013234;28;20026;-77
2022/01/21 13:31:48;;;;;;;3.33;1.80;;;9.40;37.00;;;;;;5014231;28;20034;-78
2022/01/21 13:34:27;;;;;;;4.17;1.90;;;9.40;37.00;;;;;;5014796;28;20414;-80
2022/01/21 13:37:01;;;;;;;4.97;2.73;;;9.40;36.50;;;;;;5013729;28;20108;-78
2022/01/21 13:39:36;;;;;;;5.80;2.73;;;9.40;36.80;;;;;;5014711;28;20044;-78
2022/01/21 13:42:15;;;;;;;5.30;2.33;;;9.40;37.10;;;;;;5014571;28;20033;-79
2022/01/21 13:45:11;;;;;;;4.67;2.30;;;9.30;36.90;;;;;;5014380;28;20076;-80
2022/01/21 13:47:44;;;;;;;3.70;2.20;;;9.30;35.80;;;;;;5013797;28;20042;-80
2022/01/21 13:50:24;;;;;;;5.60;2.67;;;9.30;37.00;;;;;;5014319;28;20474;-79
2022/01/21 13:53:01;;;;;;;4.90;2.70;;;9.30;36.90;;;;;;5014551;28;20076;-79
2022/01/21 13:55:41;;;;;;;3.23;2.23;;;9.20;36.70;;;;;;5014295;28;20033;-80